createdAt,value
2022-08-09T00:00:48.400Z,971.08
2022-08-09T00:01:54.462Z,971.11
2022-08-09T00:02:49.921Z,971.08
2022-08-09T00:04:05.565Z,971.10
2022-08-09T00:05:03.068Z,971.07
2022-08-09T00:06:18.497Z,971.13
2022-08-09T00:06:48.292Z,971.19
2022-08-09T00:07:47.282Z,971.16
2022-08-09T00:08:47.279Z,971.14
2022-08-09T00:09:47.269Z,971.18
2022-08-09T00:10:47.290Z,971.15
2022-08-09T00:12:04.058Z,971.14
2022-08-09T00:12:51.695Z,971.18
2022-08-09T00:13:47.214Z,971.14
2022-08-09T00:14:47.506Z,971.20
2022-08-09T00:15:58.965Z,971.18
2022-08-09T00:16:48.249Z,971.18
2022-08-09T00:18:05.425Z,971.15
2022-08-09T00:18:48.216Z,971.17
2022-08-09T00:19:48.020Z,971.22
2022-08-09T00:20:50.009Z,971.15
2022-08-09T00:21:56.738Z,971.18
2022-08-09T00:22:48.167Z,971.19
2022-08-09T00:23:55.082Z,971.16
2022-08-09T00:24:48.143Z,971.17
2022-08-09T00:25:47.083Z,971.15
2022-08-09T00:26:47.087Z,971.18
2022-08-09T00:27:47.935Z,971.13
2022-08-09T00:28:52.222Z,971.13
2022-08-09T00:30:23.474Z,971.11
2022-08-09T00:30:48.043Z,971.14
2022-08-09T00:31:59.150Z,971.13
2022-08-09T00:32:48.209Z,971.12
2022-08-09T00:33:50.803Z,971.17
2022-08-09T00:34:52.197Z,971.12
2022-08-09T00:35:48.034Z,971.13
2022-08-09T00:36:46.963Z,971.13
2022-08-09T00:37:46.954Z,971.13
2022-08-09T00:38:50.839Z,971.18
2022-08-09T00:40:13.461Z,971.18
2022-08-09T00:40:52.919Z,971.16
2022-08-09T00:44:11.855Z,971.10
2022-08-09T00:44:13.563Z,971.09
2022-08-09T00:44:17.148Z,971.13
2022-08-09T00:44:47.943Z,971.15
2022-08-09T00:45:50.455Z,971.14
2022-08-09T00:46:56.927Z,971.07
2022-08-09T00:47:47.895Z,971.10
2022-08-09T00:48:47.592Z,971.10
2022-08-09T00:49:54.539Z,971.16
2022-08-09T00:50:47.816Z,971.14
2022-08-09T00:51:55.928Z,971.14
2022-08-09T00:52:47.834Z,971.16
2022-08-09T00:53:46.773Z,971.14
2022-08-09T00:54:47.792Z,971.10
2022-08-09T00:56:05.854Z,971.16
2022-08-09T00:56:47.755Z,971.19
2022-08-09T00:57:49.801Z,971.17
2022-08-09T00:58:49.051Z,971.16
2022-08-09T00:59:52.239Z,971.17
2022-08-09T01:00:47.792Z,971.18
2022-08-09T01:01:46.804Z,971.22
2022-08-09T01:02:46.727Z,971.24
2022-08-09T01:03:46.791Z,971.32
2022-08-09T01:04:46.650Z,971.28
2022-08-09T01:05:51.691Z,971.32
2022-08-09T01:06:54.468Z,971.32
2022-08-09T01:08:00.026Z,971.31
2022-08-09T01:08:49.743Z,971.33
2022-08-09T01:09:46.834Z,971.33
2022-08-09T01:10:46.583Z,971.29
2022-08-09T01:11:55.461Z,971.33
2022-08-09T01:12:47.599Z,971.35
2022-08-09T01:13:59.086Z,971.31
2022-08-09T01:14:52.429Z,971.36
2022-08-09T01:15:52.081Z,971.38
2022-08-09T01:16:49.216Z,971.33
2022-08-09T01:17:46.568Z,971.39
2022-08-09T01:18:47.392Z,971.36
2022-08-09T01:20:01.920Z,971.39
2022-08-09T01:20:47.472Z,971.40
2022-08-09T01:21:51.264Z,971.37
2022-08-09T01:22:51.215Z,971.35
2022-08-09T01:24:02.237Z,971.36
2022-08-09T01:24:50.385Z,971.34
2022-08-09T01:25:49.034Z,971.39
2022-08-09T01:26:46.449Z,971.36
2022-08-09T01:27:47.395Z,971.35
2022-08-09T01:28:46.384Z,971.38
2022-08-09T01:29:56.003Z,971.36
2022-08-09T01:30:51.454Z,971.34
2022-08-09T01:32:29.189Z,971.33
2022-08-09T01:32:47.366Z,971.32
2022-08-09T01:33:46.327Z,971.34
2022-08-09T01:34:46.390Z,971.35
2022-08-09T01:35:46.332Z,971.32
2022-08-09T01:36:47.325Z,971.35
2022-08-09T01:38:08.092Z,971.39
2022-08-09T01:38:47.278Z,971.38
2022-08-09T01:39:46.382Z,971.35
2022-08-09T01:40:52.501Z,971.36
2022-08-09T01:41:53.593Z,971.34
2022-08-09T01:42:47.263Z,971.42
2022-08-09T01:43:51.614Z,971.41
2022-08-09T01:44:47.211Z,971.39
2022-08-09T01:45:47.807Z,971.41
2022-08-09T01:46:47.132Z,971.42
2022-08-09T01:47:46.173Z,971.45
2022-08-09T01:48:46.184Z,971.44
2022-08-09T01:49:48.764Z,971.44
2022-08-09T01:50:48.375Z,971.46
2022-08-09T01:51:53.722Z,971.46
2022-08-09T01:52:47.173Z,971.42
2022-08-09T01:53:46.146Z,971.41
2022-08-09T01:54:46.110Z,971.45
2022-08-09T01:55:46.085Z,971.44
2022-08-09T01:56:47.150Z,971.45
2022-08-09T01:57:53.033Z,971.44
2022-08-09T01:58:49.039Z,971.44
2022-08-09T01:59:52.291Z,971.43
2022-08-09T02:00:50.536Z,971.44
2022-08-09T02:01:59.405Z,971.50
2022-08-09T02:02:47.037Z,971.45
2022-08-09T02:03:46.024Z,971.51
2022-08-09T02:04:45.984Z,971.47
2022-08-09T02:06:03.204Z,971.47
2022-08-09T02:06:54.477Z,971.49
2022-08-09T02:08:40.414Z,971.46
2022-08-09T02:08:58.540Z,971.45
2022-08-09T02:09:46.974Z,971.46
2022-08-09T02:10:51.032Z,971.44
2022-08-09T02:11:45.930Z,971.47
2022-08-09T02:12:45.936Z,971.44
2022-08-09T02:14:06.358Z,971.44
2022-08-09T02:14:46.872Z,971.44
2022-08-09T02:15:49.337Z,971.46
2022-08-09T02:16:53.042Z,971.36
2022-08-09T02:18:09.724Z,971.40
2022-08-09T02:18:47.956Z,971.34
2022-08-09T02:19:45.879Z,971.42
2022-08-09T02:20:45.821Z,971.38
2022-08-09T02:21:45.796Z,971.34
2022-08-09T02:22:46.578Z,971.36
2022-08-09T02:23:45.771Z,971.37
2022-08-09T02:24:51.659Z,971.32
2022-08-09T02:25:52.860Z,971.38
2022-08-09T02:26:46.779Z,971.42
2022-08-09T02:28:00.219Z,971.39
2022-08-09T02:28:46.717Z,971.34
2022-08-09T02:29:45.707Z,971.38
2022-08-09T02:30:46.766Z,971.41
2022-08-09T02:31:45.685Z,971.38
2022-08-09T02:32:45.699Z,971.38
2022-08-09T02:34:06.263Z,971.40
2022-08-09T02:34:51.790Z,971.39
2022-08-09T02:36:02.614Z,971.45
2022-08-09T02:36:46.653Z,971.43
2022-08-09T02:37:46.658Z,971.36
2022-08-09T02:38:47.862Z,971.37
2022-08-09T02:39:49.954Z,971.39
2022-08-09T02:40:46.655Z,971.40
2022-08-09T02:41:45.632Z,971.39
2022-08-09T02:42:45.562Z,971.35
2022-08-09T02:43:54.793Z,971.35
2022-08-09T02:44:46.566Z,971.40
2022-08-09T02:45:45.541Z,971.36
2022-08-09T02:46:45.565Z,971.35
2022-08-09T02:47:59.267Z,971.39
2022-08-09T02:48:46.533Z,971.31
2022-08-09T02:49:45.510Z,971.33
2022-08-09T02:50:45.486Z,971.34
2022-08-09T02:51:45.479Z,971.35
2022-08-09T02:52:45.451Z,971.33
2022-08-09T02:53:53.051Z,971.36
2022-08-09T02:54:53.881Z,971.33
2022-08-09T02:55:58.260Z,971.34
2022-08-09T02:56:48.744Z,971.33
2022-08-09T02:58:00.190Z,971.32
2022-08-09T02:58:46.385Z,971.35
2022-08-09T03:00:21.079Z,971.30
2022-08-09T03:00:58.058Z,971.32
2022-08-09T03:02:06.264Z,971.33
2022-08-09T03:03:00.414Z,971.30
2022-08-09T03:04:17.914Z,971.33
2022-08-09T03:04:46.370Z,971.35
2022-08-09T03:05:45.341Z,971.30
2022-08-09T03:06:45.494Z,971.31
2022-08-09T03:07:55.124Z,971.37
2022-08-09T03:08:46.314Z,971.34
2022-08-09T03:09:56.217Z,971.33
2022-08-09T03:10:46.379Z,971.35
2022-08-09T03:12:05.678Z,971.34
2022-08-09T03:12:46.652Z,971.38
2022-08-09T03:13:54.562Z,971.35
2022-08-09T03:14:46.271Z,971.34
2022-08-09T03:16:06.495Z,971.35
2022-08-09T03:16:47.715Z,971.29
2022-08-09T03:17:45.190Z,971.35
2022-08-09T03:18:46.210Z,971.37
2022-08-09T03:19:58.168Z,971.36
2022-08-09T03:20:46.138Z,971.33
2022-08-09T03:21:50.751Z,971.34
2022-08-09T03:22:46.274Z,971.36
2022-08-09T03:24:03.765Z,971.36
2022-08-09T03:24:52.436Z,971.37
2022-08-09T03:26:03.118Z,971.34
2022-08-09T03:26:47.176Z,971.40
2022-08-09T03:27:45.880Z,971.40
2022-08-09T03:28:45.060Z,971.36
2022-08-09T03:29:58.001Z,971.38
2022-08-09T03:30:46.069Z,971.33
2022-08-09T03:31:59.865Z,971.38
2022-08-09T03:32:46.011Z,971.39
2022-08-09T03:33:53.175Z,971.39
2022-08-09T03:34:46.027Z,971.39
2022-08-09T03:36:14.095Z,971.39
2022-08-09T03:36:58.184Z,971.40
2022-08-09T03:37:56.051Z,971.34
2022-08-09T03:38:45.949Z,971.38
2022-08-09T03:39:48.589Z,971.38
2022-08-09T03:40:45.953Z,971.41
2022-08-09T03:41:48.349Z,971.37
2022-08-09T03:42:44.960Z,971.37
2022-08-09T03:43:51.664Z,971.40
2022-08-09T03:44:45.889Z,971.45
2022-08-09T03:46:04.546Z,971.42
2022-08-09T03:46:46.487Z,971.46
2022-08-09T03:47:46.330Z,971.47
2022-08-09T03:48:51.866Z,971.48
2022-08-09T03:49:58.436Z,971.46
2022-08-09T03:50:45.827Z,971.49
2022-08-09T03:51:58.143Z,971.50
2022-08-09T03:52:46.023Z,971.49
2022-08-09T03:53:44.783Z,971.49
2022-08-09T03:54:44.818Z,971.52
2022-08-09T03:55:44.751Z,971.50
2022-08-09T03:56:44.745Z,971.53
2022-08-09T03:58:03.314Z,971.50
2022-08-09T03:58:45.714Z,971.53
2022-08-09T03:59:53.414Z,971.54
2022-08-09T04:00:45.772Z,971.57
2022-08-09T04:01:44.688Z,971.55
2022-08-09T04:02:45.047Z,971.52
2022-08-09T04:03:46.163Z,971.60
2022-08-09T04:04:47.865Z,971.63
2022-08-09T04:05:45.072Z,971.66
2022-08-09T04:06:49.298Z,971.64
2022-08-09T04:07:53.615Z,971.65
2022-08-09T04:08:46.665Z,971.69
2022-08-09T04:09:50.036Z,971.67
2022-08-09T04:10:47.991Z,971.68
2022-08-09T04:11:44.573Z,971.68
2022-08-09T04:12:45.167Z,971.66
2022-08-09T04:14:37.065Z,971.71
2022-08-09T04:15:00.386Z,971.69
2022-08-09T04:16:20.236Z,971.70
2022-08-09T04:16:45.517Z,971.72
2022-08-09T04:17:44.505Z,971.72
2022-08-09T04:18:44.493Z,971.74
2022-08-09T04:19:51.545Z,971.71
2022-08-09T04:20:45.491Z,971.71
2022-08-09T04:21:44.508Z,971.75
2022-08-09T04:22:44.575Z,971.70
2022-08-09T04:23:54.335Z,971.72
2022-08-09T04:24:45.447Z,971.75
2022-08-09T04:25:44.431Z,971.72
2022-08-09T04:26:45.435Z,971.75
2022-08-09T04:27:49.113Z,971.71
2022-08-09T04:28:44.444Z,971.73
2022-08-09T04:29:49.670Z,971.69
2022-08-09T04:30:45.387Z,971.74
2022-08-09T04:31:46.995Z,971.78
2022-08-09T04:32:45.937Z,971.76
2022-08-09T04:33:51.826Z,971.76
2022-08-09T04:34:54.076Z,971.76
2022-08-09T04:35:45.317Z,971.77
2022-08-09T04:36:50.409Z,971.72
2022-08-09T04:37:46.747Z,971.81
2022-08-09T04:38:44.303Z,971.80
2022-08-09T04:39:44.324Z,971.80
2022-08-09T04:40:45.250Z,971.82
2022-08-09T04:41:44.273Z,971.85
2022-08-09T04:42:44.243Z,971.80
2022-08-09T04:43:46.623Z,971.78
2022-08-09T04:44:49.322Z,971.82
2022-08-09T04:45:53.143Z,971.79
2022-08-09T04:46:59.229Z,971.79
2022-08-09T04:48:00.286Z,971.81
2022-08-09T04:48:57.636Z,971.86
2022-08-09T04:49:54.457Z,971.85
2022-08-09T04:50:45.150Z,971.81
2022-08-09T04:51:44.196Z,971.87
2022-08-09T04:52:44.115Z,971.86
2022-08-09T04:53:44.148Z,971.91
2022-08-09T04:54:44.127Z,971.89
2022-08-09T04:55:58.891Z,971.92
2022-08-09T04:56:45.067Z,971.97
2022-08-09T04:57:53.991Z,971.97
2022-08-09T04:58:45.054Z,971.98
2022-08-09T04:59:44.062Z,971.94
2022-08-09T05:00:44.068Z,972.01
2022-08-09T05:01:44.054Z,971.98
2022-08-09T05:02:44.005Z,971.96
2022-08-09T05:03:44.121Z,971.96
2022-08-09T05:04:44.020Z,972.01
2022-08-09T05:05:52.048Z,971.98
2022-08-09T05:06:44.956Z,971.98
2022-08-09T05:07:46.425Z,972.03
2022-08-09T05:08:48.016Z,972.02
2022-08-09T05:09:49.437Z,972.02
2022-08-09T05:10:44.940Z,972.02
2022-08-09T05:11:43.915Z,971.99
2022-08-09T05:12:43.902Z,971.99
2022-08-09T05:13:43.920Z,972.00
2022-08-09T05:14:43.869Z,972.00
2022-08-09T05:15:52.151Z,972.03
2022-08-09T05:16:59.243Z,971.95
2022-08-09T05:18:37.955Z,971.98
2022-08-09T05:18:59.349Z,972.01
2022-08-09T05:19:46.145Z,971.99
2022-08-09T05:20:43.828Z,971.98
2022-08-09T05:21:47.357Z,971.99
2022-08-09T05:23:53.742Z,972.01
2022-08-09T05:23:56.698Z,971.97
2022-08-09T05:24:44.822Z,971.98
2022-08-09T05:25:43.755Z,971.98
2022-08-09T05:26:46.268Z,971.99
2022-08-09T05:27:45.341Z,972.01
2022-08-09T05:28:43.728Z,972.03
2022-08-09T05:29:43.748Z,972.07
2022-08-09T05:30:47.938Z,972.01
2022-08-09T05:31:45.936Z,972.04
2022-08-09T05:32:44.689Z,972.06
2022-08-09T05:33:43.673Z,972.03
2022-08-09T05:34:45.800Z,972.01
2022-08-09T05:35:49.818Z,972.05
2022-08-09T05:36:47.221Z,972.05
2022-08-09T05:37:47.832Z,972.02
2022-08-09T05:38:46.118Z,972.03
2022-08-09T05:39:44.617Z,972.05
2022-08-09T05:40:47.578Z,972.02
2022-08-09T05:41:44.582Z,972.00
2022-08-09T05:42:43.609Z,972.01
2022-08-09T05:43:45.301Z,972.07
2022-08-09T05:44:44.602Z,972.02
2022-08-09T05:45:55.620Z,972.06
2022-08-09T05:46:44.516Z,972.06
2022-08-09T05:47:51.676Z,972.04
2022-08-09T05:48:44.495Z,972.01
2022-08-09T05:50:23.168Z,971.97
2022-08-09T05:50:51.254Z,972.03
2022-08-09T05:51:46.448Z,972.00
2022-08-09T05:52:43.467Z,972.05
2022-08-09T05:53:51.652Z,972.09
2022-08-09T05:54:44.436Z,972.03
2022-08-09T05:55:43.487Z,972.07
2022-08-09T05:56:54.907Z,972.06
2022-08-09T05:57:57.052Z,972.07
2022-08-09T05:58:44.394Z,972.14
2022-08-09T05:59:43.377Z,972.10
2022-08-09T06:00:43.381Z,972.14
2022-08-09T06:01:43.354Z,972.09
2022-08-09T06:02:46.493Z,972.09
2022-08-09T06:03:54.551Z,972.11
2022-08-09T06:04:44.535Z,972.10
2022-08-09T06:05:57.713Z,972.13
2022-08-09T06:06:50.008Z,972.15
2022-08-09T06:07:44.307Z,972.14
2022-08-09T06:08:44.264Z,972.14
2022-08-09T06:10:02.364Z,972.16
2022-08-09T06:10:44.273Z,972.11
2022-08-09T06:11:57.407Z,972.09
2022-08-09T06:12:44.226Z,972.12
2022-08-09T06:13:44.257Z,972.12
2022-08-09T06:14:43.220Z,972.14
2022-08-09T06:15:43.214Z,972.14
2022-08-09T06:16:43.187Z,972.16
2022-08-09T06:17:44.183Z,972.13
2022-08-09T06:18:43.208Z,972.12
2022-08-09T06:19:43.148Z,972.18
2022-08-09T06:20:43.156Z,972.11
2022-08-09T06:21:51.584Z,972.16
2022-08-09T06:22:45.679Z,972.13
2022-08-09T06:23:57.460Z,972.11
2022-08-09T06:24:44.129Z,972.13
2022-08-09T06:25:43.158Z,972.18
2022-08-09T06:26:43.617Z,972.13
2022-08-09T06:27:51.884Z,972.18
2022-08-09T06:28:44.053Z,972.20
2022-08-09T06:29:47.761Z,972.19
2022-08-09T06:30:44.044Z,972.24
2022-08-09T06:32:09.056Z,972.24
2022-08-09T06:33:00.708Z,972.24
2022-08-09T06:33:48.598Z,972.24
2022-08-09T06:34:42.990Z,972.18
2022-08-09T06:35:57.334Z,972.22
2022-08-09T06:36:44.134Z,972.22
2022-08-09T06:37:53.396Z,972.19
2022-08-09T06:38:50.179Z,972.20
2022-08-09T06:39:57.385Z,972.19
2022-08-09T06:40:43.988Z,972.17
2022-08-09T06:42:08.509Z,972.22
2022-08-09T06:42:44.560Z,972.20
2022-08-09T06:43:42.903Z,972.24
2022-08-09T06:44:42.864Z,972.14
2022-08-09T06:46:07.038Z,972.19
2022-08-09T06:46:43.866Z,972.22
2022-08-09T06:47:42.852Z,972.18
2022-08-09T06:48:43.213Z,972.15
2022-08-09T06:50:12.122Z,972.13
2022-08-09T06:50:43.833Z,972.17
2022-08-09T06:51:42.806Z,972.19
2022-08-09T06:52:42.795Z,972.19
2022-08-09T06:53:42.817Z,972.18
2022-08-09T06:54:42.771Z,972.14
2022-08-09T06:55:42.740Z,972.15
2022-08-09T06:56:45.534Z,972.19
2022-08-09T06:58:02.232Z,972.19
2022-08-09T07:00:49.455Z,972.19
2022-08-09T07:00:51.715Z,972.16
2022-08-09T07:00:52.110Z,972.21
2022-08-09T07:01:54.133Z,972.16
2022-08-09T07:02:43.770Z,972.18
2022-08-09T07:03:52.197Z,972.14
2022-08-09T07:04:43.656Z,972.19
2022-08-09T07:06:02.780Z,972.21
2022-08-09T07:06:43.613Z,972.21
2022-08-09T07:07:59.949Z,972.21
2022-08-09T07:08:43.601Z,972.24
2022-08-09T07:09:55.041Z,972.25
2022-08-09T07:10:43.568Z,972.28
2022-08-09T07:11:45.520Z,972.30
2022-08-09T07:12:43.902Z,972.29
2022-08-09T07:13:45.179Z,972.28
2022-08-09T07:14:43.532Z,972.30
2022-08-09T07:16:40.720Z,972.34
2022-08-09T07:16:48.145Z,972.29
2022-08-09T07:17:52.579Z,972.29
2022-08-09T07:18:43.524Z,972.30
2022-08-09T07:19:42.475Z,972.28
2022-08-09T07:20:43.715Z,972.32
2022-08-09T07:21:55.947Z,972.34
2022-08-09T07:22:48.477Z,972.30
2022-08-09T07:23:56.634Z,972.32
2022-08-09T07:24:44.488Z,972.35
2022-08-09T07:25:43.607Z,972.38
2022-08-09T07:26:42.408Z,972.38
2022-08-09T07:27:53.115Z,972.37
2022-08-09T07:29:09.412Z,972.41
2022-08-09T07:29:43.391Z,972.42
2022-08-09T07:30:42.349Z,972.43
2022-08-09T07:31:45.508Z,972.45
2022-08-09T07:32:42.336Z,972.42
2022-08-09T07:33:52.638Z,972.45
2022-08-09T07:34:43.302Z,972.47
2022-08-09T07:35:54.189Z,972.42
2022-08-09T07:36:43.319Z,972.50
2022-08-09T07:37:44.433Z,972.50
2022-08-09T07:38:42.278Z,972.45
2022-08-09T07:39:42.655Z,972.53
2022-08-09T07:41:00.654Z,972.58
2022-08-09T07:41:43.237Z,972.51
2022-08-09T07:42:42.300Z,972.48
2022-08-09T07:43:50.001Z,972.45
2022-08-09T07:44:51.120Z,972.49
2022-08-09T07:45:43.184Z,972.50
2022-08-09T07:46:42.171Z,972.51
2022-08-09T07:48:00.960Z,972.53
2022-08-09T07:48:43.188Z,972.57
2022-08-09T07:50:04.517Z,972.55
2022-08-09T07:50:43.125Z,972.62
2022-08-09T07:52:05.548Z,972.57
2022-08-09T07:52:43.209Z,972.65
2022-08-09T07:54:07.037Z,972.59
2022-08-09T07:54:43.110Z,972.67
2022-08-09T07:56:03.430Z,972.58
2022-08-09T07:56:49.230Z,972.56
2022-08-09T07:57:46.864Z,972.58
2022-08-09T07:58:42.039Z,972.57
2022-08-09T07:59:52.091Z,972.60
2022-08-09T08:00:58.983Z,972.64
2022-08-09T08:01:43.126Z,972.65
2022-08-09T08:02:43.097Z,972.62
2022-08-09T08:03:43.001Z,972.63
2022-08-09T08:04:42.024Z,972.63
2022-08-09T08:05:57.605Z,972.61
2022-08-09T08:06:45.525Z,972.64
2022-08-09T08:08:44.450Z,972.65
2022-08-09T08:09:03.129Z,972.62
2022-08-09T08:09:51.590Z,972.60
2022-08-09T08:11:03.189Z,972.60
2022-08-09T08:12:09.741Z,972.64
2022-08-09T08:12:45.540Z,972.64
2022-08-09T08:13:56.133Z,972.64
2022-08-09T08:14:42.887Z,972.61
2022-08-09T08:15:41.906Z,972.65
2022-08-09T08:16:51.127Z,972.59
2022-08-09T08:17:53.175Z,972.63
2022-08-09T08:18:43.242Z,972.63
2022-08-09T08:19:41.838Z,972.61
2022-08-09T08:20:42.707Z,972.59
2022-08-09T08:21:41.781Z,972.60
2022-08-09T08:22:42.810Z,972.62
2022-08-09T08:23:41.768Z,972.59
2022-08-09T08:24:47.186Z,972.63
2022-08-09T08:25:44.320Z,972.63
2022-08-09T08:26:54.681Z,972.65
2022-08-09T08:27:42.921Z,972.68
2022-08-09T08:28:41.717Z,972.62
2022-08-09T08:29:48.683Z,972.66
2022-08-09T08:30:42.775Z,972.66
2022-08-09T08:32:03.453Z,972.67
2022-08-09T08:32:52.539Z,972.66
2022-08-09T08:33:53.731Z,972.68
2022-08-09T08:34:42.668Z,972.69
2022-08-09T08:35:58.957Z,972.67
2022-08-09T08:36:42.668Z,972.72
2022-08-09T08:37:59.980Z,972.68
2022-08-09T08:38:42.602Z,972.73
2022-08-09T08:39:44.409Z,972.68
2022-08-09T08:40:41.575Z,972.70
2022-08-09T08:41:50.944Z,972.71
2022-08-09T08:42:43.637Z,972.71
2022-08-09T08:43:41.540Z,972.75
2022-08-09T08:44:41.555Z,972.72
2022-08-09T08:45:51.517Z,972.72
2022-08-09T08:46:59.489Z,972.79
2022-08-09T08:47:42.746Z,972.73
2022-08-09T08:48:51.230Z,972.75
2022-08-09T08:49:48.404Z,972.81
2022-08-09T08:50:42.511Z,972.71
2022-08-09T08:52:01.675Z,972.70
2022-08-09T08:52:58.165Z,972.70
2022-08-09T08:54:04.096Z,972.77
2022-08-09T08:54:42.423Z,972.77
2022-08-09T08:55:41.744Z,972.71
2022-08-09T08:56:41.440Z,972.69
2022-08-09T08:57:41.394Z,972.73
2022-08-09T08:58:44.460Z,972.70
2022-08-09T08:59:46.888Z,972.68
2022-08-09T09:00:42.352Z,972.73
2022-08-09T09:01:51.970Z,972.71
2022-08-09T09:02:42.462Z,972.68
2022-08-09T09:03:41.476Z,972.69
2022-08-09T09:04:50.919Z,972.74
2022-08-09T09:06:00.909Z,972.67
2022-08-09T09:06:42.289Z,972.71
2022-08-09T09:07:42.653Z,972.70
2022-08-09T09:08:42.653Z,972.68
2022-08-09T09:10:02.484Z,972.71
2022-08-09T09:10:42.242Z,972.66
2022-08-09T09:11:41.237Z,972.63
2022-08-09T09:12:41.222Z,972.68
2022-08-09T09:13:50.297Z,972.67
2022-08-09T09:14:42.222Z,972.61
2022-08-09T09:15:41.248Z,972.62
2022-08-09T09:16:41.225Z,972.64
2022-08-09T09:17:49.562Z,972.67
2022-08-09T09:18:48.125Z,972.60
2022-08-09T09:19:42.197Z,972.57
2022-08-09T09:20:41.171Z,972.63
2022-08-09T09:21:41.635Z,972.59
2022-08-09T09:22:41.109Z,972.66
2022-08-09T09:23:41.095Z,972.60
2022-08-09T09:24:43.475Z,972.55
2022-08-09T09:26:02.346Z,972.49
2022-08-09T09:26:43.732Z,972.51
2022-08-09T09:28:05.872Z,972.54
2022-08-09T09:29:04.568Z,972.52
2022-08-09T09:30:10.552Z,972.52
2022-08-09T09:30:42.069Z,972.57
2022-08-09T09:32:01.828Z,972.50
2022-08-09T09:32:42.056Z,972.56
2022-08-09T09:33:44.491Z,972.57
2022-08-09T09:34:41.029Z,972.60
2022-08-09T09:35:44.986Z,972.61
2022-08-09T09:36:51.137Z,972.56
2022-08-09T09:37:41.975Z,972.53
2022-08-09T09:38:40.963Z,972.54
2022-08-09T09:39:50.428Z,972.49
2022-08-09T09:40:41.989Z,972.52
2022-08-09T09:41:49.190Z,972.45
2022-08-09T09:42:46.348Z,972.49
2022-08-09T09:43:41.269Z,972.49
2022-08-09T09:44:40.897Z,972.46
2022-08-09T09:45:56.840Z,972.51
2022-08-09T09:46:45.580Z,972.48
2022-08-09T09:47:56.695Z,972.49
2022-08-09T09:48:41.841Z,972.49
2022-08-09T09:50:07.383Z,972.53
2022-08-09T09:50:49.692Z,972.58
2022-08-09T09:51:41.785Z,972.51
2022-08-09T09:52:40.779Z,972.53
2022-08-09T09:53:57.509Z,972.51
2022-08-09T09:54:41.785Z,972.54
2022-08-09T09:55:41.741Z,972.59
2022-08-09T09:58:00.346Z,972.54
2022-08-09T09:58:01.161Z,972.59
2022-08-09T09:58:41.745Z,972.60
2022-08-09T09:59:40.725Z,972.63
2022-08-09T10:00:40.733Z,972.60
2022-08-09T10:01:41.675Z,972.62
2022-08-09T10:02:40.668Z,972.61
2022-08-09T10:03:42.581Z,972.61
2022-08-09T10:04:40.698Z,972.64
2022-08-09T10:06:04.074Z,972.54
2022-08-09T10:06:42.975Z,972.59
2022-08-09T10:08:10.967Z,972.54
2022-08-09T10:08:54.280Z,972.59
2022-08-09T10:09:45.845Z,972.62
2022-08-09T10:10:41.641Z,972.59
2022-08-09T10:12:00.779Z,972.61
2022-08-09T10:12:43.531Z,972.58
2022-08-09T10:13:43.050Z,972.61
2022-08-09T10:14:48.079Z,972.61
2022-08-09T10:16:09.702Z,972.54
2022-08-09T10:16:57.264Z,972.57
2022-08-09T10:17:55.722Z,972.47
2022-08-09T10:18:41.501Z,972.46
2022-08-09T10:19:41.502Z,972.51
2022-08-09T10:20:45.208Z,972.53
2022-08-09T10:21:41.459Z,972.54
2022-08-09T10:22:41.842Z,972.53
2022-08-09T10:23:40.513Z,972.57
2022-08-09T10:24:40.456Z,972.55
2022-08-09T10:26:06.921Z,972.57
2022-08-09T10:26:41.415Z,972.60
2022-08-09T10:27:45.037Z,972.57
2022-08-09T10:28:41.444Z,972.50
2022-08-09T10:30:43.562Z,972.57
2022-08-09T10:32:13.618Z,972.49
2022-08-09T10:32:35.772Z,972.54
2022-08-09T10:32:42.701Z,972.45
2022-08-09T10:34:08.704Z,972.47
2022-08-09T10:34:41.358Z,972.40
2022-08-09T10:35:40.331Z,972.40
2022-08-09T10:36:40.299Z,972.43
2022-08-09T10:37:40.291Z,972.38
2022-08-09T10:38:56.173Z,972.40
2022-08-09T10:39:49.513Z,972.35
2022-08-09T10:40:41.372Z,972.38
2022-08-09T10:41:40.275Z,972.41
2022-08-09T10:42:40.228Z,972.37
2022-08-09T10:43:50.782Z,972.39
2022-08-09T10:44:41.253Z,972.33
2022-08-09T10:45:49.312Z,972.31
2022-08-09T10:46:54.546Z,972.35
2022-08-09T10:48:12.739Z,972.31
2022-08-09T10:48:41.160Z,972.33
2022-08-09T10:49:50.170Z,972.32
2022-08-09T10:50:41.190Z,972.34
2022-08-09T10:51:41.366Z,972.27
2022-08-09T10:52:42.806Z,972.27
2022-08-09T10:53:46.917Z,972.30
2022-08-09T10:54:41.100Z,972.27
2022-08-09T10:55:55.082Z,972.25
2022-08-09T10:56:41.101Z,972.23
2022-08-09T10:57:41.810Z,972.24
2022-08-09T10:58:40.103Z,972.22
2022-08-09T10:59:55.488Z,972.27
2022-08-09T11:00:41.789Z,972.22
2022-08-09T11:03:11.445Z,972.24
2022-08-09T11:03:13.977Z,972.25
2022-08-09T11:03:51.331Z,972.24
2022-08-09T11:04:56.340Z,972.22
2022-08-09T11:05:41.004Z,972.18
2022-08-09T11:06:40.958Z,972.21
2022-08-09T11:07:56.611Z,972.22
2022-08-09T11:08:47.120Z,972.25
2022-08-09T11:09:41.297Z,972.21
2022-08-09T11:10:40.935Z,972.17
2022-08-09T11:11:43.670Z,972.20
2022-08-09T11:12:40.903Z,972.24
2022-08-09T11:13:50.085Z,972.31
2022-08-09T11:14:40.913Z,972.23
2022-08-09T11:15:50.798Z,972.23
2022-08-09T11:16:41.458Z,972.22
2022-08-09T11:17:41.812Z,972.29
2022-08-09T11:18:39.922Z,972.23
2022-08-09T11:20:11.136Z,972.25
2022-08-09T11:20:40.848Z,972.20
2022-08-09T11:21:41.397Z,972.17
2022-08-09T11:22:39.797Z,972.21
2022-08-09T11:23:39.795Z,972.18
2022-08-09T11:24:39.787Z,972.21
2022-08-09T11:25:47.744Z,972.23
2022-08-09T11:26:40.844Z,972.18
2022-08-09T11:28:02.580Z,972.22
2022-08-09T11:28:56.053Z,972.18
2022-08-09T11:30:06.171Z,972.15
2022-08-09T11:30:48.119Z,972.16
2022-08-09T11:31:43.603Z,972.05
2022-08-09T11:32:40.669Z,972.13
2022-08-09T11:33:39.657Z,972.16
2022-08-09T11:34:39.724Z,972.17
2022-08-09T11:35:49.136Z,972.12
2022-08-09T11:36:40.662Z,972.19
2022-08-09T11:37:41.581Z,972.21
2022-08-09T11:38:41.479Z,972.19
2022-08-09T11:39:39.614Z,972.21
2022-08-09T11:40:39.614Z,972.21
2022-08-09T11:41:40.467Z,972.21
2022-08-09T11:42:39.573Z,972.25
2022-08-09T11:43:39.578Z,972.24
2022-08-09T11:44:39.539Z,972.25
2022-08-09T11:45:42.803Z,972.25
2022-08-09T11:46:39.516Z,972.24
2022-08-09T11:47:39.540Z,972.21
2022-08-09T11:48:39.510Z,972.17
2022-08-09T11:49:42.832Z,972.18
2022-08-09T11:50:53.293Z,972.19
2022-08-09T11:53:02.394Z,972.18
2022-08-09T11:53:59.154Z,972.18
2022-08-09T11:53:59.524Z,972.10
2022-08-09T11:54:40.433Z,972.15
2022-08-09T11:55:52.298Z,972.14
2022-08-09T11:56:47.835Z,972.06
2022-08-09T11:57:47.473Z,972.08
2022-08-09T11:58:40.416Z,972.06
2022-08-09T11:59:40.405Z,972.05
2022-08-09T12:00:39.387Z,972.09
2022-08-09T12:02:34.389Z,972.07
2022-08-09T12:02:40.717Z,972.00
2022-08-09T12:03:56.725Z,971.98
2022-08-09T12:04:40.399Z,972.07
2022-08-09T12:05:39.714Z,972.04
2022-08-09T12:06:39.314Z,972.06
2022-08-09T12:07:41.800Z,972.09
2022-08-09T12:08:39.271Z,972.07
2022-08-09T12:09:40.271Z,972.08
2022-08-09T12:10:40.333Z,972.07
2022-08-09T12:12:02.415Z,972.04
2022-08-09T12:12:40.369Z,972.03
2022-08-09T12:14:07.779Z,972.01
2022-08-09T12:15:03.665Z,972.05
2022-08-09T12:15:48.783Z,972.00
2022-08-09T12:16:40.306Z,972.02
2022-08-09T12:17:43.430Z,972.01
2022-08-09T12:18:40.185Z,972.06
2022-08-09T12:19:40.133Z,972.08
2022-08-09T12:20:39.140Z,972.05
2022-08-09T12:21:48.678Z,972.05
2022-08-09T12:22:40.117Z,972.07
2022-08-09T12:23:56.201Z,972.10
2022-08-09T12:24:40.098Z,972.09
2022-08-09T12:25:39.087Z,972.06
2022-08-09T12:26:40.114Z,972.07
2022-08-09T12:29:10.808Z,972.09
2022-08-09T12:29:14.481Z,972.09